createdAt,value
2017-06-25T00:00:12.784Z,19.87
2017-06-25T00:02:41.127Z,20.10
2017-06-25T00:05:09.439Z,23.20
2017-06-25T00:07:38.147Z,21.30
2017-06-25T00:10:06.485Z,21.77
2017-06-25T00:12:34.866Z,23.67
2017-06-25T00:15:03.222Z,25.93
2017-06-25T00:17:31.546Z,25.37
2017-06-25T00:20:00.644Z,27.73
2017-06-25T00:22:29.382Z,25.53
2017-06-25T00:24:57.679Z,27.73
2017-06-25T00:27:27.522Z,27.17
2017-06-25T00:29:55.822Z,27.00
2017-06-25T00:32:24.168Z,29.53
2017-06-25T00:34:52.474Z,26.53
2017-06-25T00:37:20.870Z,26.90
2017-06-25T00:39:49.208Z,26.27
2017-06-25T00:42:17.515Z,26.27
2017-06-25T00:44:45.856Z,25.83
2017-06-25T00:47:14.183Z,27.23
2017-06-25T00:49:42.551Z,26.23
2017-06-25T00:52:10.879Z,29.17
2017-06-25T00:54:40.059Z,26.03
2017-06-25T00:57:08.375Z,25.90
2017-06-25T00:59:36.726Z,24.60
2017-06-25T01:02:05.806Z,26.20
2017-06-25T01:04:34.994Z,28.03
2017-06-25T01:07:03.361Z,25.93
2017-06-25T01:09:32.062Z,27.60
2017-06-25T01:12:00.402Z,25.37
2017-06-25T01:14:28.787Z,26.17
2017-06-25T01:16:57.111Z,26.73
2017-06-25T01:19:26.190Z,27.30
2017-06-25T01:21:54.566Z,25.10
2017-06-25T01:24:22.871Z,25.97
2017-06-25T01:26:51.216Z,28.13
2017-06-25T01:29:19.560Z,27.83
2017-06-25T01:31:47.896Z,25.77
2017-06-25T01:34:16.979Z,24.00
2017-06-25T01:36:46.104Z,24.23
2017-06-25T01:39:14.428Z,25.00
2017-06-25T01:41:42.735Z,27.03
2017-06-25T01:44:11.814Z,26.33
2017-06-25T01:46:40.147Z,26.10
2017-06-25T01:49:08.499Z,26.30
2017-06-25T01:51:36.836Z,27.57
2017-06-25T01:54:05.145Z,29.53
2017-06-25T01:56:34.206Z,25.40
2017-06-25T01:59:02.554Z,29.77
2017-06-25T02:01:30.870Z,28.03
2017-06-25T02:03:59.238Z,28.90
2017-06-25T02:06:27.555Z,28.50
2017-06-25T02:08:55.888Z,27.87
2017-06-25T02:11:24.194Z,25.33
2017-06-25T02:13:53.300Z,26.47
2017-06-25T02:16:21.606Z,26.70
2017-06-25T02:18:49.947Z,26.60
2017-06-25T02:21:19.105Z,26.73
2017-06-25T02:23:47.451Z,28.10
2017-06-25T02:26:15.779Z,26.67
2017-06-25T02:28:44.088Z,27.10
2017-06-25T02:31:13.659Z,29.80
2017-06-25T02:33:42.014Z,27.50
2017-06-25T02:36:10.314Z,29.40
2017-06-25T02:38:38.643Z,28.27
2017-06-25T02:41:07.010Z,27.53
2017-06-25T02:43:35.310Z,27.47
2017-06-25T02:46:03.683Z,28.70
2017-06-25T02:48:32.014Z,28.00
2017-06-25T02:51:00.728Z,29.27
2017-06-25T02:53:29.088Z,30.27
2017-06-25T02:55:57.427Z,28.80
2017-06-25T02:58:25.778Z,27.80
2017-06-25T03:00:54.082Z,27.53
2017-06-25T03:03:22.424Z,28.67
2017-06-25T03:05:50.746Z,28.80
2017-06-25T03:08:19.076Z,26.87
2017-06-25T03:10:47.383Z,27.30
2017-06-25T03:13:15.716Z,29.80
2017-06-25T03:15:44.024Z,26.60
2017-06-25T03:18:12.360Z,26.80
2017-06-25T03:20:40.682Z,28.73
2017-06-25T03:23:08.984Z,29.73
2017-06-25T03:25:38.078Z,30.90
2017-06-25T03:28:06.383Z,30.00
2017-06-25T03:30:34.723Z,28.70
2017-06-25T03:33:03.196Z,28.03
2017-06-25T03:35:31.511Z,30.23
2017-06-25T03:37:59.830Z,29.90
2017-06-25T03:40:28.219Z,30.47
2017-06-25T03:42:56.604Z,26.67
2017-06-25T03:45:24.888Z,28.57
2017-06-25T03:48:21.479Z,28.27
2017-06-25T03:50:50.580Z,15.83
2017-06-25T03:53:18.993Z,12.23
2017-06-25T03:55:47.287Z,9.23
2017-06-25T03:58:16.011Z,8.70
2017-06-25T04:00:44.310Z,11.47
2017-06-25T04:03:12.627Z,14.57
2017-06-25T04:05:41.087Z,10.23
2017-06-25T04:08:10.198Z,10.40
2017-06-25T04:10:39.266Z,9.63
2017-06-25T04:13:07.588Z,12.80
2017-06-25T04:15:35.991Z,12.03
2017-06-25T04:18:04.972Z,13.07
2017-06-25T04:20:33.413Z,11.70
2017-06-25T04:23:01.722Z,11.87
2017-06-25T04:25:30.035Z,17.23
2017-06-25T04:27:58.374Z,12.30
2017-06-25T04:30:26.715Z,11.50
2017-06-25T04:32:55.047Z,12.30
2017-06-25T04:35:23.381Z,12.33
2017-06-25T04:37:51.743Z,11.70
2017-06-25T04:40:20.058Z,14.00
2017-06-25T04:42:48.402Z,13.10
2017-06-25T04:45:16.714Z,12.07
2017-06-25T04:47:45.058Z,11.83
2017-06-25T04:50:13.366Z,13.63
2017-06-25T04:52:41.736Z,12.23
2017-06-25T04:55:10.802Z,12.47
2017-06-25T04:57:39.124Z,12.87
2017-06-25T05:00:07.860Z,11.07
2017-06-25T05:02:36.178Z,12.80
2017-06-25T05:05:04.503Z,11.80
2017-06-25T05:07:32.826Z,13.73
2017-06-25T05:10:01.567Z,12.40
2017-06-25T05:12:30.260Z,11.27
2017-06-25T05:14:58.591Z,11.93
2017-06-25T05:17:27.299Z,12.67
2017-06-25T05:19:55.591Z,11.60
2017-06-25T05:22:23.905Z,10.90
2017-06-25T05:24:52.975Z,11.90
2017-06-25T05:27:21.301Z,11.40
2017-06-25T05:29:49.724Z,12.00
2017-06-25T05:32:18.105Z,11.30
2017-06-25T05:34:46.406Z,11.00
2017-06-25T05:37:14.714Z,11.53
2017-06-25T05:39:43.067Z,12.83
2017-06-25T05:42:11.375Z,11.70
2017-06-25T05:44:39.697Z,11.33
2017-06-25T05:47:08.086Z,12.87
2017-06-25T05:49:37.169Z,11.73
2017-06-25T05:52:05.491Z,11.20
2017-06-25T05:54:33.933Z,11.90
2017-06-25T05:57:03.005Z,13.20
2017-06-25T05:59:31.352Z,12.97
2017-06-25T06:01:59.651Z,12.10
2017-06-25T06:04:27.991Z,11.67
2017-06-25T06:06:56.704Z,12.87
2017-06-25T06:09:25.016Z,24.20
2017-06-25T06:11:53.384Z,11.87
2017-06-25T06:14:21.699Z,13.50
2017-06-25T06:16:50.023Z,14.90
2017-06-25T06:19:18.492Z,13.90
2017-06-25T06:21:46.790Z,13.80
2017-06-25T06:24:15.110Z,13.20
2017-06-25T06:26:43.430Z,12.93
2017-06-25T06:29:11.816Z,13.60
2017-06-25T06:31:40.122Z,12.70
2017-06-25T06:34:08.451Z,12.57
2017-06-25T06:36:36.817Z,12.60
2017-06-25T06:39:05.144Z,10.30
2017-06-25T06:41:33.479Z,14.50
2017-06-25T06:44:01.791Z,11.73
2017-06-25T06:46:30.095Z,12.63
2017-06-25T06:48:58.485Z,12.23
2017-06-25T06:51:26.796Z,11.67
2017-06-25T06:53:55.139Z,11.23
2017-06-25T06:56:26.305Z,12.30
2017-06-25T06:58:54.630Z,11.70
2017-06-25T07:01:22.959Z,11.97
2017-06-25T07:03:51.371Z,11.03
2017-06-25T07:06:19.826Z,12.10
2017-06-25T07:08:48.218Z,10.77
2017-06-25T07:11:16.508Z,12.33
2017-06-25T07:13:44.854Z,10.83
2017-06-25T07:16:13.250Z,12.23
2017-06-25T07:18:41.549Z,11.90
2017-06-25T07:21:10.644Z,11.43
2017-06-25T07:23:39.739Z,9.33
2017-06-25T07:26:08.813Z,10.10
2017-06-25T07:28:37.141Z,8.80
2017-06-25T07:31:05.454Z,11.07
2017-06-25T07:33:33.791Z,10.90
2017-06-25T07:36:02.094Z,11.27
2017-06-25T07:38:30.391Z,10.93
2017-06-25T07:40:58.727Z,9.50
2017-06-25T07:43:27.029Z,9.53
2017-06-25T07:45:55.354Z,9.27
2017-06-25T07:48:24.046Z,9.20
2017-06-25T07:50:52.386Z,9.33
2017-06-25T07:53:20.681Z,9.13
2017-06-25T07:55:49.779Z,8.20
2017-06-25T07:58:18.234Z,8.63
2017-06-25T08:00:46.520Z,7.93
2017-06-25T08:03:14.840Z,8.77
2017-06-25T08:05:43.127Z,8.23
2017-06-25T08:08:11.458Z,8.63
2017-06-25T08:10:39.750Z,9.53
2017-06-25T08:13:08.076Z,8.40
2017-06-25T08:15:36.443Z,7.27
2017-06-25T08:18:05.449Z,8.60
2017-06-25T08:20:33.791Z,8.80
2017-06-25T08:23:02.496Z,11.80
2017-06-25T08:25:31.544Z,11.47
2017-06-25T08:27:59.904Z,12.50
2017-06-25T08:30:28.296Z,11.30
2017-06-25T08:32:57.537Z,11.20
2017-06-25T08:35:25.858Z,13.17
2017-06-25T08:37:54.183Z,15.20
2017-06-25T08:40:22.478Z,13.03
2017-06-25T08:42:50.823Z,12.40
2017-06-25T08:45:19.122Z,12.13
2017-06-25T08:47:47.535Z,12.70
2017-06-25T08:50:16.239Z,18.13
2017-06-25T08:52:44.562Z,14.00
2017-06-25T08:55:12.921Z,12.97
2017-06-25T08:57:41.268Z,12.70
2017-06-25T09:00:09.607Z,13.23
2017-06-25T09:02:37.981Z,18.13
2017-06-25T09:05:06.327Z,12.23
2017-06-25T09:07:34.735Z,10.20
2017-06-25T09:10:03.110Z,14.43
2017-06-25T09:12:31.407Z,11.10
2017-06-25T09:14:59.798Z,12.23
2017-06-25T09:17:28.122Z,11.33
2017-06-25T09:19:56.483Z,10.90
2017-06-25T09:22:25.607Z,12.33
2017-06-25T09:24:53.932Z,12.40
2017-06-25T09:27:22.407Z,11.70
2017-06-25T09:29:50.825Z,10.80
2017-06-25T09:32:19.296Z,9.23
2017-06-25T09:34:47.616Z,10.40
2017-06-25T09:37:15.972Z,10.67
2017-06-25T09:39:44.308Z,10.13
2017-06-25T09:42:13.484Z,9.90
2017-06-25T09:44:41.810Z,10.97
2017-06-25T09:47:10.249Z,10.00
2017-06-25T09:49:38.575Z,10.00
2017-06-25T09:52:06.996Z,9.70
2017-06-25T09:54:35.370Z,11.90
2017-06-25T09:57:04.455Z,9.60
2017-06-25T09:59:32.764Z,9.10
2017-06-25T10:02:01.882Z,8.33
2017-06-25T10:04:30.908Z,8.13
2017-06-25T10:06:59.277Z,7.47
2017-06-25T10:09:27.586Z,7.87
2017-06-25T10:11:55.962Z,7.90
2017-06-25T10:14:24.272Z,7.60
2017-06-25T10:16:53.370Z,6.50
2017-06-25T10:19:21.711Z,8.63
2017-06-25T10:21:50.042Z,7.27
2017-06-25T10:24:18.471Z,8.53
2017-06-25T10:26:46.763Z,7.20
2017-06-25T10:29:15.100Z,8.13
2017-06-25T10:31:44.212Z,8.23
2017-06-25T10:34:12.515Z,5.83
2017-06-25T10:36:41.616Z,5.37
2017-06-25T10:39:09.948Z,6.03
2017-06-25T10:41:38.236Z,6.50
2017-06-25T10:44:06.586Z,5.10
2017-06-25T10:46:34.907Z,7.73
2017-06-25T10:49:03.346Z,5.97
2017-06-25T10:51:31.658Z,5.37
2017-06-25T10:54:00.014Z,4.37
2017-06-25T10:56:34.079Z,4.40
2017-06-25T10:59:07.818Z,5.13
2017-06-25T11:01:41.723Z,2.83
2017-06-25T11:04:15.651Z,2.90
2017-06-25T11:06:49.379Z,4.23
2017-06-25T11:09:24.040Z,2.77
2017-06-25T11:11:52.511Z,5.47
2017-06-25T11:14:20.844Z,2.73
2017-06-25T11:16:49.576Z,2.90
2017-06-25T11:19:18.622Z,4.50
2017-06-25T11:21:47.265Z,2.43
2017-06-25T11:24:15.566Z,2.00
2017-06-25T11:26:43.862Z,3.10
2017-06-25T11:29:12.595Z,5.90
2017-06-25T11:31:40.946Z,3.13
2017-06-25T11:34:09.635Z,2.33
2017-06-25T11:36:38.402Z,4.60
2017-06-25T11:39:07.622Z,2.87
2017-06-25T11:41:36.746Z,3.70
2017-06-25T11:44:05.522Z,2.40
2017-06-25T11:46:34.614Z,2.47
2017-06-25T11:49:03.357Z,3.30
2017-06-25T11:51:32.047Z,2.93
2017-06-25T11:54:06.014Z,2.83
2017-06-25T11:56:34.666Z,4.33
2017-06-25T11:59:03.811Z,2.10
2017-06-25T12:01:32.136Z,5.63
2017-06-25T12:04:01.262Z,4.30
2017-06-25T12:06:30.391Z,3.03
2017-06-25T12:09:12.879Z,3.30
2017-06-25T12:11:41.223Z,5.00
2017-06-25T12:14:10.382Z,2.93
2017-06-25T12:16:38.667Z,2.83
2017-06-25T12:19:06.999Z,2.30
2017-06-25T12:21:36.093Z,6.20
2017-06-25T12:24:04.399Z,2.00
2017-06-25T12:26:33.500Z,3.10
2017-06-25T12:29:01.824Z,2.13
2017-06-25T12:31:30.522Z,7.50
2017-06-25T12:33:59.675Z,3.27
2017-06-25T12:36:28.366Z,2.87
2017-06-25T12:38:57.441Z,2.93
2017-06-25T12:41:25.753Z,3.03
2017-06-25T12:43:54.459Z,4.23
2017-06-25T12:46:22.878Z,5.23
2017-06-25T12:48:51.182Z,2.90
2017-06-25T12:51:19.870Z,3.10
2017-06-25T12:53:48.999Z,2.60
2017-06-25T12:56:17.699Z,5.00
2017-06-25T12:58:46.810Z,8.03
2017-06-25T13:01:15.531Z,3.13
2017-06-25T13:03:44.590Z,5.20
2017-06-25T13:06:13.771Z,4.63
2017-06-25T13:08:42.861Z,2.60
2017-06-25T13:11:11.160Z,3.20
2017-06-25T13:13:39.477Z,4.47
2017-06-25T13:16:08.543Z,4.30
2017-06-25T13:18:38.383Z,4.43
2017-06-25T13:21:07.461Z,4.70
2017-06-25T13:23:35.820Z,3.13
2017-06-25T13:26:04.567Z,5.33
2017-06-25T13:28:33.655Z,3.93
2017-06-25T13:31:01.988Z,6.20
2017-06-25T13:33:30.684Z,4.40
2017-06-25T13:35:59.414Z,6.10
2017-06-25T13:38:27.704Z,10.20
2017-06-25T13:40:56.463Z,5.00
2017-06-25T13:43:25.535Z,6.80
2017-06-25T13:45:54.839Z,5.00
2017-06-25T13:48:23.140Z,3.40
2017-06-25T13:50:51.437Z,7.57
2017-06-25T13:53:19.767Z,6.40
2017-06-25T13:55:48.834Z,4.57
2017-06-25T13:58:17.563Z,5.20
2017-06-25T14:00:46.311Z,6.43
2017-06-25T14:03:14.611Z,5.97
2017-06-25T14:05:43.703Z,6.17
2017-06-25T14:08:12.427Z,5.30
2017-06-25T14:10:40.767Z,6.57
2017-06-25T14:13:09.069Z,4.53
2017-06-25T14:15:38.155Z,8.00
2017-06-25T14:18:06.580Z,5.00
2017-06-25T14:20:35.671Z,4.00
2017-06-25T14:23:03.992Z,4.93
2017-06-25T14:25:33.066Z,4.60
2017-06-25T14:28:02.113Z,6.87
2017-06-25T14:30:30.470Z,3.60
2017-06-25T14:32:58.775Z,5.97
2017-06-25T14:35:27.059Z,3.97
2017-06-25T14:37:55.390Z,4.17
2017-06-25T14:40:24.450Z,4.30
2017-06-25T14:42:52.803Z,4.13
2017-06-25T14:45:21.844Z,4.20
2017-06-25T14:47:50.914Z,4.60
2017-06-25T14:50:19.238Z,4.17
2017-06-25T14:52:47.549Z,4.10
2017-06-25T14:55:15.874Z,4.00
2017-06-25T14:57:44.564Z,4.43
2017-06-25T15:00:12.895Z,4.80
2017-06-25T15:02:41.603Z,4.13
2017-06-25T15:05:10.031Z,5.93
2017-06-25T15:07:38.331Z,8.53
2017-06-25T15:10:07.395Z,7.00
2017-06-25T15:12:36.526Z,6.20
2017-06-25T15:15:04.827Z,9.27
2017-06-25T15:17:33.159Z,6.73
2017-06-25T15:20:01.488Z,6.23
2017-06-25T15:22:30.594Z,6.50
2017-06-25T15:24:58.879Z,7.40
2017-06-25T15:27:30.006Z,7.63
2017-06-25T15:29:58.310Z,12.23
2017-06-25T15:32:26.674Z,9.80
2017-06-25T15:34:55.047Z,10.93
2017-06-25T15:37:23.580Z,9.27
2017-06-25T15:39:51.868Z,8.50
2017-06-25T15:42:20.179Z,19.03
2017-06-25T15:44:49.262Z,7.87
2017-06-25T15:47:17.578Z,8.90
2017-06-25T15:49:45.884Z,7.37
2017-06-25T15:52:14.186Z,5.53
2017-06-25T15:54:43.351Z,6.40
2017-06-25T15:57:11.642Z,5.70
2017-06-25T15:59:40.719Z,5.97
2017-06-25T16:02:09.531Z,5.77
2017-06-25T16:04:38.623Z,5.33
2017-06-25T16:07:07.806Z,5.47
2017-06-25T16:09:36.494Z,5.90
2017-06-25T16:12:06.314Z,7.53
2017-06-25T16:14:34.835Z,6.70
2017-06-25T16:17:03.158Z,6.97
2017-06-25T16:19:31.458Z,6.77
2017-06-25T16:22:00.587Z,9.10
2017-06-25T16:24:28.889Z,6.00
2017-06-25T16:26:57.595Z,7.37
2017-06-25T16:29:26.010Z,7.37
2017-06-25T16:31:55.170Z,5.70
2017-06-25T16:34:23.467Z,5.53
2017-06-25T16:36:51.942Z,5.57
2017-06-25T16:39:20.640Z,4.47
2017-06-25T16:41:49.717Z,4.27
2017-06-25T16:44:18.815Z,4.63
2017-06-25T16:46:47.170Z,4.40
2017-06-25T16:49:16.223Z,7.13
2017-06-25T16:51:44.539Z,4.50
2017-06-25T16:54:12.839Z,4.50
2017-06-25T16:56:41.163Z,4.63
2017-06-25T16:59:09.654Z,5.43
2017-06-25T17:01:38.373Z,5.33
2017-06-25T17:04:06.682Z,5.30
2017-06-25T17:06:35.003Z,4.90
2017-06-25T17:09:03.714Z,6.20
2017-06-25T17:11:32.823Z,5.23
2017-06-25T17:14:01.122Z,5.70
2017-06-25T17:16:29.463Z,5.90
2017-06-25T17:18:57.759Z,4.87
2017-06-25T17:21:26.828Z,5.73
2017-06-25T17:23:55.156Z,6.13
2017-06-25T17:26:23.474Z,5.50
2017-06-25T17:28:51.795Z,5.57
2017-06-25T17:31:20.507Z,5.47
2017-06-25T17:33:48.823Z,5.40
2017-06-25T17:36:17.123Z,5.83
2017-06-25T17:38:45.947Z,4.80
2017-06-25T17:41:14.350Z,5.20
2017-06-25T17:43:42.728Z,5.00
2017-06-25T17:46:11.084Z,6.77
2017-06-25T17:48:39.464Z,5.50
2017-06-25T17:51:07.751Z,5.90
2017-06-25T17:53:36.072Z,6.40
2017-06-25T17:56:05.371Z,5.43
2017-06-25T17:58:33.664Z,6.20
2017-06-25T18:01:02.009Z,6.37
2017-06-25T18:03:30.306Z,5.67
2017-06-25T18:05:59.363Z,6.93
2017-06-25T18:08:28.089Z,6.67
2017-06-25T18:10:56.419Z,6.43
2017-06-25T18:13:25.962Z,9.30
2017-06-25T18:15:54.655Z,6.37
2017-06-25T18:18:22.954Z,5.47
2017-06-25T18:20:51.668Z,5.90
2017-06-25T18:23:19.972Z,6.90
2017-06-25T18:25:48.315Z,6.53
2017-06-25T18:28:16.672Z,5.80
2017-06-25T18:30:45.013Z,8.37
2017-06-25T18:33:14.090Z,7.10
2017-06-25T18:35:42.836Z,5.77
2017-06-25T18:38:11.178Z,10.07
2017-06-25T18:40:39.482Z,10.97
2017-06-25T18:43:07.817Z,5.80
2017-06-25T18:45:36.917Z,6.60
2017-06-25T18:48:06.012Z,6.90
2017-06-25T18:50:34.363Z,7.90
2017-06-25T18:53:03.108Z,8.43
2017-06-25T18:55:31.398Z,7.10
2017-06-25T18:57:59.695Z,5.33
2017-06-25T19:00:28.407Z,6.20
2017-06-25T19:02:57.509Z,8.70
2017-06-25T19:05:26.605Z,6.17
2017-06-25T19:07:55.691Z,8.10
2017-06-25T19:10:24.444Z,8.70
2017-06-25T19:12:52.838Z,8.57
2017-06-25T19:15:21.136Z,7.57
2017-06-25T19:17:50.226Z,6.20
2017-06-25T19:20:19.292Z,8.20
2017-06-25T19:22:47.595Z,7.50
2017-06-25T19:25:15.927Z,8.77
2017-06-25T19:27:44.251Z,9.70
2017-06-25T19:30:12.599Z,6.60
2017-06-25T19:32:41.652Z,7.13
2017-06-25T19:35:09.947Z,10.13
2017-06-25T19:37:38.323Z,7.07
2017-06-25T19:40:06.684Z,6.70
2017-06-25T19:42:35.102Z,6.50
2017-06-25T19:45:03.406Z,8.65
2017-06-25T19:47:32.469Z,7.60
2017-06-25T19:50:00.809Z,8.20
2017-06-25T19:52:29.235Z,5.87
2017-06-25T19:54:57.514Z,11.20
2017-06-25T19:57:25.878Z,7.20
2017-06-25T19:59:54.968Z,7.60
2017-06-25T20:02:23.709Z,8.10
2017-06-25T20:04:52.932Z,10.50
2017-06-25T20:07:21.236Z,8.33
2017-06-25T20:09:50.350Z,9.43
2017-06-25T20:12:18.662Z,11.60
2017-06-25T20:14:46.984Z,6.10
2017-06-25T20:17:15.729Z,7.63
2017-06-25T20:19:44.411Z,6.83
2017-06-25T20:22:12.756Z,10.20
2017-06-25T20:24:41.458Z,7.90
2017-06-25T20:27:10.571Z,8.80
2017-06-25T20:29:39.285Z,8.80
2017-06-25T20:32:07.583Z,9.60
2017-06-25T20:34:36.687Z,11.27
2017-06-25T20:37:04.989Z,7.30
2017-06-25T20:39:33.274Z,8.03
2017-06-25T20:42:01.608Z,9.53
2017-06-25T20:44:31.469Z,12.07
2017-06-25T20:46:59.792Z,10.40
2017-06-25T20:49:28.576Z,11.47
2017-06-25T20:51:57.703Z,8.37
2017-06-25T20:54:26.768Z,8.13
2017-06-25T20:56:55.101Z,10.53
2017-06-25T20:59:23.423Z,9.90
2017-06-25T21:01:52.826Z,7.60
2017-06-25T21:04:21.143Z,10.70
2017-06-25T21:06:49.443Z,9.30
2017-06-25T21:09:18.577Z,11.73
2017-06-25T21:11:47.620Z,9.77
2017-06-25T21:14:16.037Z,11.60
2017-06-25T21:16:44.333Z,10.60
2017-06-25T21:19:12.674Z,8.43
2017-06-25T21:21:41.003Z,9.37
2017-06-25T21:24:10.091Z,10.10
2017-06-25T21:26:38.833Z,10.90
2017-06-25T21:29:07.873Z,10.03
2017-06-25T21:31:36.638Z,14.63
2017-06-25T21:34:04.951Z,13.17
2017-06-25T21:36:34.062Z,12.80
2017-06-25T21:39:03.348Z,12.50
2017-06-25T21:41:31.659Z,15.33
2017-06-25T21:44:00.403Z,13.43
2017-06-25T21:46:28.720Z,15.53
2017-06-25T21:48:57.425Z,16.63
2017-06-25T21:51:25.764Z,16.83
2017-06-25T21:53:54.118Z,16.30
2017-06-25T21:56:22.419Z,17.30
2017-06-25T21:58:50.731Z,15.20
2017-06-25T22:01:19.442Z,15.33
2017-06-25T22:03:48.610Z,17.10
2017-06-25T22:06:16.916Z,15.80
2017-06-25T22:08:45.638Z,18.30
2017-06-25T22:11:13.949Z,19.53
2017-06-25T22:13:42.275Z,15.57
2017-06-25T22:16:10.586Z,18.97
2017-06-25T22:18:39.298Z,17.80
2017-06-25T22:21:14.392Z,19.13
2017-06-25T22:23:43.539Z,18.47
2017-06-25T22:26:12.656Z,17.47
2017-06-25T22:28:40.991Z,17.87
2017-06-25T22:31:09.294Z,25.67
2017-06-25T22:33:38.395Z,17.23
2017-06-25T22:36:06.706Z,20.27
2017-06-25T22:38:35.827Z,21.10
2017-06-25T22:41:04.134Z,27.93
2017-06-25T22:43:33.223Z,21.80
2017-06-25T22:46:01.631Z,20.87
2017-06-25T22:48:30.336Z,19.10
2017-06-25T22:50:58.643Z,23.43
2017-06-25T22:53:27.757Z,18.00
2017-06-25T22:55:56.848Z,17.17
2017-06-25T22:58:25.928Z,15.63
2017-06-25T23:00:54.253Z,15.13
2017-06-25T23:03:22.987Z,19.40
2017-06-25T23:05:51.319Z,16.70
2017-06-25T23:08:19.695Z,21.27
2017-06-25T23:10:47.997Z,16.50
2017-06-25T23:13:16.310Z,14.63
2017-06-25T23:15:44.675Z,14.93
2017-06-25T23:18:12.960Z,11.47
2017-06-25T23:20:41.340Z,13.20
2017-06-25T23:23:10.069Z,10.33
2017-06-25T23:25:38.493Z,11.03
2017-06-25T23:28:06.919Z,9.60
2017-06-25T23:30:35.647Z,8.97
2017-06-25T23:33:03.967Z,9.70
2017-06-25T23:35:33.039Z,9.37
2017-06-25T23:38:01.371Z,9.13
2017-06-25T23:40:29.660Z,7.73
2017-06-25T23:42:57.951Z,7.73
2017-06-25T23:45:26.278Z,6.80
2017-06-25T23:47:54.581Z,7.17
2017-06-25T23:50:22.919Z,7.83
2017-06-25T23:52:51.223Z,6.63
2017-06-25T23:55:19.574Z,6.93
2017-06-25T23:57:47.919Z,6.33
